Cedron, Missouri
Current Conditions -  °F | °C
As of 8:54 PM on Friday 28 Nov 2014 (Local Time) from KCOU Reporting Station
Clear Clear  
Wind Chill: 45°   Ceiling: Unl
Heat Index: 49°   Visibility: 10mi
Dew Point: 35°   Wind: 10mph
Humidity: 59%   Direction: 180°S
Pressure: 29.84"   Gusts: NA
Location:  38.7914°N, 92.4851°W
Report Text: KCOU 290254Z AUTO 18009KT 10SM CLR 09/02 A2984 RMK AO2 SLP108 T00940017 57004
Loading
Personal Weather Stations






























Interactive Weather Map New forecast layout! Learn more

10-Day Weather Forecast

Advertisements
Track Severe Weather on mobile